logo
Rechercher aéroport 
image banner adimage banner adimage banner ad
image banner ad

SDRO - Darinha

Situé à Cascavel, Brazil

ICAO - SDRO, IATA -

Données fournies par Airmate  

Information générale

Coordonnées: S4°6'43" W38°14'53"
Élévation : 108 feet MSL.
Variation magnétique : -20.813052779° East
Voir autres Aéroports à Ceará

Données opérationnelles

Special qualification required
Heure actuelle UTC:
Heure actuelle locale:
Météo à : SBFZ - Pinto Martins ( 49 km )
METAR: SBFZ 232100Z 10016KT CAVOK 27/22 Q1014
TAF: TAF SBFZ 232000Z 2400/2424 10013KT 9999 FEW020 TN23/2409Z TX32/2417Z BECMG 2405/2407 16012KT CAVOK BECMG 2414/2416 12015KT FEW025 BECMG 2421/2423 10010KT RMK PGY
Voir NOTAMs / SUP AIP / TFR affectant cet aéroport [VIEW]
Fréquences de communication: [VIEW]

Pistes:

Coordonnées de l'aéroport

Adresse: Cascavel Brazil

Vue satellite de SDRO